sensor_id;sensor_type;location;lat;lon;timestamp;P1;durP1;ratioP1;P2;durP2;ratioP2
9783;SDS011;4931;44.874;-1.092;2022-10-19T00:02:48;25.73;;;10.65;;
9783;SDS011;4931;44.874;-1.092;2022-10-19T00:07:33;25.85;;;10.98;;
9783;SDS011;4931;44.874;-1.092;2022-10-19T00:12:21;29.13;;;10.48;;
9783;SDS011;4931;44.874;-1.092;2022-10-19T00:17:07;26.98;;;10.90;;
9783;SDS011;4931;44.874;-1.092;2022-10-19T00:21:52;29.95;;;12.00;;
9783;SDS011;4931;44.874;-1.092;2022-10-19T00:26:37;25.65;;;10.15;;
9783;SDS011;4931;44.874;-1.092;2022-10-19T00:31:26;26.10;;;10.95;;
9783;SDS011;4931;44.874;-1.092;2022-10-19T00:36:13;30.55;;;11.63;;
9783;SDS011;4931;44.874;-1.092;2022-10-19T00:41:01;27.30;;;10.85;;
9783;SDS011;4931;44.874;-1.092;2022-10-19T00:45:46;32.03;;;11.38;;
9783;SDS011;4931;44.874;-1.092;2022-10-19T00:50:34;26.58;;;10.82;;
9783;SDS011;4931;44.874;-1.092;2022-10-19T00:55:20;30.70;;;10.32;;
9783;SDS011;4931;44.874;-1.092;2022-10-19T01:00:06;29.88;;;11.57;;
9783;SDS011;4931;44.874;-1.092;2022-10-19T01:04:52;27.85;;;11.45;;
9783;SDS011;4931;44.874;-1.092;2022-10-19T01:09:41;28.33;;;11.48;;
9783;SDS011;4931;44.874;-1.092;2022-10-19T01:14:27;27.95;;;11.48;;
9783;SDS011;4931;44.874;-1.092;2022-10-19T01:19:27;28.65;;;12.15;;
9783;SDS011;4931;44.874;-1.092;2022-10-19T01:24:42;27.25;;;11.82;;
9783;SDS011;4931;44.874;-1.092;2022-10-19T01:29:59;33.13;;;12.48;;
9783;SDS011;4931;44.874;-1.092;2022-10-19T01:34:46;31.75;;;11.85;;
9783;SDS011;4931;44.874;-1.092;2022-10-19T01:39:37;36.22;;;12.07;;
9783;SDS011;4931;44.874;-1.092;2022-10-19T01:44:33;36.15;;;12.00;;
9783;SDS011;4931;44.874;-1.092;2022-10-19T01:49:26;24.30;;;12.05;;
9783;SDS011;4931;44.874;-1.092;2022-10-19T01:54:17;28.77;;;12.43;;
9783;SDS011;4931;44.874;-1.092;2022-10-19T01:59:05;30.52;;;13.02;;
9783;SDS011;4931;44.874;-1.092;2022-10-19T02:03:52;34.55;;;12.38;;
9783;SDS011;4931;44.874;-1.092;2022-10-19T02:08:42;26.27;;;11.75;;
9783;SDS011;4931;44.874;-1.092;2022-10-19T02:13:29;29.95;;;11.40;;
9783;SDS011;4931;44.874;-1.092;2022-10-19T02:18:17;32.08;;;12.02;;
9783;SDS011;4931;44.874;-1.092;2022-10-19T02:23:07;29.38;;;12.20;;
9783;SDS011;4931;44.874;-1.092;2022-10-19T02:27:56;28.30;;;12.20;;
9783;SDS011;4931;44.874;-1.092;2022-10-19T02:32:41;30.50;;;12.60;;
9783;SDS011;4931;44.874;-1.092;2022-10-19T02:37:27;29.67;;;12.13;;
9783;SDS011;4931;44.874;-1.092;2022-10-19T02:42:13;32.50;;;12.20;;
9783;SDS011;4931;44.874;-1.092;2022-10-19T02:47:05;28.00;;;12.48;;
9783;SDS011;4931;44.874;-1.092;2022-10-19T02:51:55;28.08;;;12.23;;
9783;SDS011;4931;44.874;-1.092;2022-10-19T02:56:43;28.35;;;13.10;;
9783;SDS011;4931;44.874;-1.092;2022-10-19T03:01:28;29.58;;;12.82;;
9783;SDS011;4931;44.874;-1.092;2022-10-19T03:06:16;28.80;;;12.60;;
9783;SDS011;4931;44.874;-1.092;2022-10-19T03:11:01;26.08;;;12.25;;
9783;SDS011;4931;44.874;-1.092;2022-10-19T03:15:47;34.42;;;12.48;;
9783;SDS011;4931;44.874;-1.092;2022-10-19T03:20:32;26.83;;;12.82;;
9783;SDS011;4931;44.874;-1.092;2022-10-19T03:25:20;29.67;;;12.55;;
9783;SDS011;4931;44.874;-1.092;2022-10-19T03:30:05;25.17;;;12.32;;
9783;SDS011;4931;44.874;-1.092;2022-10-19T03:34:51;30.80;;;13.00;;
9783;SDS011;4931;44.874;-1.092;2022-10-19T03:39:36;31.27;;;12.75;;
9783;SDS011;4931;44.874;-1.092;2022-10-19T03:44:24;26.38;;;12.85;;
9783;SDS011;4931;44.874;-1.092;2022-10-19T03:49:09;22.08;;;12.02;;
9783;SDS011;4931;44.874;-1.092;2022-10-19T03:53:56;34.60;;;12.88;;
9783;SDS011;4931;44.874;-1.092;2022-10-19T03:58:43;29.70;;;12.43;;
9783;SDS011;4931;44.874;-1.092;2022-10-19T04:03:32;27.92;;;12.55;;
9783;SDS011;4931;44.874;-1.092;2022-10-19T04:08:18;31.73;;;13.93;;
9783;SDS011;4931;44.874;-1.092;2022-10-19T04:13:03;29.77;;;13.43;;
9783;SDS011;4931;44.874;-1.092;2022-10-19T04:17:48;27.98;;;13.25;;
9783;SDS011;4931;44.874;-1.092;2022-10-19T04:22:36;24.60;;;12.35;;
9783;SDS011;4931;44.874;-1.092;2022-10-19T04:27:21;32.42;;;12.52;;
9783;SDS011;4931;44.874;-1.092;2022-10-19T04:32:06;32.33;;;12.55;;
9783;SDS011;4931;44.874;-1.092;2022-10-19T04:36:51;26.67;;;13.30;;
9783;SDS011;4931;44.874;-1.092;2022-10-19T04:41:42;28.40;;;13.15;;
9783;SDS011;4931;44.874;-1.092;2022-10-19T04:46:28;31.88;;;12.82;;
9783;SDS011;4931;44.874;-1.092;2022-10-19T04:51:14;28.92;;;12.52;;
9783;SDS011;4931;44.874;-1.092;2022-10-19T04:56:03;29.33;;;12.52;;
9783;SDS011;4931;44.874;-1.092;2022-10-19T05:00:52;31.05;;;13.20;;
9783;SDS011;4931;44.874;-1.092;2022-10-19T05:05:37;31.30;;;12.60;;
9783;SDS011;4931;44.874;-1.092;2022-10-19T05:10:22;32.08;;;13.40;;
9783;SDS011;4931;44.874;-1.092;2022-10-19T05:15:08;28.67;;;13.05;;
9783;SDS011;4931;44.874;-1.092;2022-10-19T05:19:57;24.25;;;12.50;;
9783;SDS011;4931;44.874;-1.092;2022-10-19T05:24:42;24.50;;;12.32;;
9783;SDS011;4931;44.874;-1.092;2022-10-19T05:29:27;31.08;;;13.18;;
9783;SDS011;4931;44.874;-1.092;2022-10-19T05:34:14;25.70;;;13.30;;
9783;SDS011;4931;44.874;-1.092;2022-10-19T05:39:03;26.05;;;13.13;;
9783;SDS011;4931;44.874;-1.092;2022-10-19T05:43:51;25.88;;;13.35;;
9783;SDS011;4931;44.874;-1.092;2022-10-19T05:48:37;25.70;;;13.55;;
9783;SDS011;4931;44.874;-1.092;2022-10-19T05:53:23;34.95;;;14.25;;
9783;SDS011;4931;44.874;-1.092;2022-10-19T05:58:11;29.88;;;13.07;;
9783;SDS011;4931;44.874;-1.092;2022-10-19T06:02:56;28.90;;;13.20;;
9783;SDS011;4931;44.874;-1.092;2022-10-19T06:07:41;25.38;;;12.35;;
9783;SDS011;4931;44.874;-1.092;2022-10-19T06:12:27;26.85;;;12.95;;
9783;SDS011;4931;44.874;-1.092;2022-10-19T06:17:15;30.45;;;13.15;;
9783;SDS011;4931;44.874;-1.092;2022-10-19T06:22:00;26.30;;;12.35;;
9783;SDS011;4931;44.874;-1.092;2022-10-19T06:26:45;29.25;;;12.27;;
9783;SDS011;4931;44.874;-1.092;2022-10-19T06:31:31;25.50;;;12.25;;
9783;SDS011;4931;44.874;-1.092;2022-10-19T06:36:21;31.90;;;12.38;;
9783;SDS011;4931;44.874;-1.092;2022-10-19T06:41:08;25.42;;;12.60;;
9783;SDS011;4931;44.874;-1.092;2022-10-19T06:45:53;29.13;;;12.88;;
9783;SDS011;4931;44.874;-1.092;2022-10-19T06:50:38;29.13;;;12.88;;
9783;SDS011;4931;44.874;-1.092;2022-10-19T06:55:27;25.45;;;12.65;;
9783;SDS011;4931;44.874;-1.092;2022-10-19T07:00:12;31.00;;;12.07;;
9783;SDS011;4931;44.874;-1.092;2022-10-19T07:04:58;28.00;;;12.57;;
9783;SDS011;4931;44.874;-1.092;2022-10-19T07:09:47;33.22;;;12.80;;
9783;SDS011;4931;44.874;-1.092;2022-10-19T07:14:37;27.25;;;13.10;;
9783;SDS011;4931;44.874;-1.092;2022-10-19T07:19:24;25.40;;;12.13;;
9783;SDS011;4931;44.874;-1.092;2022-10-19T07:24:10;32.80;;;12.65;;
9783;SDS011;4931;44.874;-1.092;2022-10-19T07:28:56;29.70;;;12.30;;
9783;SDS011;4931;44.874;-1.092;2022-10-19T07:33:44;32.65;;;12.25;;
9783;SDS011;4931;44.874;-1.092;2022-10-19T07:38:30;26.52;;;12.18;;
9783;SDS011;4931;44.874;-1.092;2022-10-19T07:43:16;31.52;;;11.98;;
9783;SDS011;4931;44.874;-1.092;2022-10-19T07:48:01;26.45;;;11.27;;
9783;SDS011;4931;44.874;-1.092;2022-10-19T07:52:49;24.02;;;10.93;;
9783;SDS011;4931;44.874;-1.092;2022-10-19T07:57:35;24.02;;;11.18;;
9783;SDS011;4931;44.874;-1.092;2022-10-19T08:02:24;23.73;;;11.13;;
9783;SDS011;4931;44.874;-1.092;2022-10-19T08:07:31;27.02;;;11.23;;
9783;SDS011;4931;44.874;-1.092;2022-10-19T08:12:19;25.85;;;10.80;;
9783;SDS011;4931;44.874;-1.092;2022-10-19T08:17:04;22.02;;;10.10;;
9783;SDS011;4931;44.874;-1.092;2022-10-19T08:21:50;27.20;;;10.07;;
9783;SDS011;4931;44.874;-1.092;2022-10-19T08:26:36;28.10;;;12.98;;
9783;SDS011;4931;44.874;-1.092;2022-10-19T08:31:24;19.13;;;10.07;;
9783;SDS011;4931;44.874;-1.092;2022-10-19T08:36:11;28.35;;;10.07;;
9783;SDS011;4931;44.874;-1.092;2022-10-19T08:40:56;21.65;;;9.50;;
9783;SDS011;4931;44.874;-1.092;2022-10-19T08:45:49;21.95;;;10.50;;
9783;SDS011;4931;44.874;-1.092;2022-10-19T08:50:41;21.17;;;9.35;;
9783;SDS011;4931;44.874;-1.092;2022-10-19T08:55:33;33.75;;;18.95;;
9783;SDS011;4931;44.874;-1.092;2022-10-19T09:00:30;22.25;;;10.15;;
9783;SDS011;4931;44.874;-1.092;2022-10-19T09:05:23;25.10;;;9.38;;
9783;SDS011;4931;44.874;-1.092;2022-10-19T09:10:19;21.67;;;9.15;;
9783;SDS011;4931;44.874;-1.092;2022-10-19T09:15:09;29.10;;;9.18;;
9783;SDS011;4931;44.874;-1.092;2022-10-19T09:19:56;24.00;;;9.30;;
9783;SDS011;4931;44.874;-1.092;2022-10-19T09:24:46;27.77;;;8.63;;
9783;SDS011;4931;44.874;-1.092;2022-10-19T09:29:38;23.48;;;8.80;;
9783;SDS011;4931;44.874;-1.092;2022-10-19T09:34:28;21.38;;;8.77;;
9783;SDS011;4931;44.874;-1.092;2022-10-19T09:39:18;22.27;;;9.50;;
9783;SDS011;4931;44.874;-1.092;2022-10-19T09:44:09;22.15;;;9.27;;
9783;SDS011;4931;44.874;-1.092;2022-10-19T09:48:58;24.77;;;9.55;;
9783;SDS011;4931;44.874;-1.092;2022-10-19T09:53:44;22.58;;;8.38;;
9783;SDS011;4931;44.874;-1.092;2022-10-19T09:58:33;25.38;;;9.13;;
9783;SDS011;4931;44.874;-1.092;2022-10-19T10:03:26;27.33;;;8.77;;
9783;SDS011;4931;44.874;-1.092;2022-10-19T10:08:23;22.83;;;8.40;;
9783;SDS011;4931;44.874;-1.092;2022-10-19T10:13:26;25.88;;;9.40;;
9783;SDS011;4931;44.874;-1.092;2022-10-19T10:18:16;23.05;;;8.75;;
9783;SDS011;4931;44.874;-1.092;2022-10-19T10:23:11;21.63;;;8.43;;
9783;SDS011;4931;44.874;-1.092;2022-10-19T10:28:19;27.33;;;8.43;;
9783;SDS011;4931;44.874;-1.092;2022-10-19T10:33:09;24.15;;;8.25;;
9783;SDS011;4931;44.874;-1.092;2022-10-19T10:38:21;25.73;;;8.57;;
9783;SDS011;4931;44.874;-1.092;2022-10-19T10:43:12;21.52;;;8.00;;
9783;SDS011;4931;44.874;-1.092;2022-10-19T10:48:05;23.83;;;9.10;;
9783;SDS011;4931;44.874;-1.092;2022-10-19T10:52:59;21.02;;;8.15;;
9783;SDS011;4931;44.874;-1.092;2022-10-19T10:57:49;19.83;;;8.20;;
9783;SDS011;4931;44.874;-1.092;2022-10-19T11:07:26;25.60;;;8.68;;
9783;SDS011;4931;44.874;-1.092;2022-10-19T11:12:15;24.52;;;8.10;;
9783;SDS011;4931;44.874;-1.092;2022-10-19T11:17:09;21.23;;;8.15;;
9783;SDS011;4931;44.874;-1.092;2022-10-19T11:22:01;23.60;;;8.40;;
9783;SDS011;4931;44.874;-1.092;2022-10-19T11:26:58;24.67;;;8.35;;
9783;SDS011;4931;44.874;-1.092;2022-10-19T11:31:52;24.40;;;8.63;;
9783;SDS011;4931;44.874;-1.092;2022-10-19T11:36:44;25.83;;;8.40;;
9783;SDS011;4931;44.874;-1.092;2022-10-19T11:41:38;25.08;;;8.13;;
9783;SDS011;4931;44.874;-1.092;2022-10-19T11:46:33;29.98;;;8.93;;
9783;SDS011;4931;44.874;-1.092;2022-10-19T11:51:35;20.88;;;8.30;;
9783;SDS011;4931;44.874;-1.092;2022-10-19T11:56:36;20.67;;;8.30;;
9783;SDS011;4931;44.874;-1.092;2022-10-19T12:01:51;25.23;;;7.95;;
9783;SDS011;4931;44.874;-1.092;2022-10-19T12:06:43;24.33;;;8.40;;
9783;SDS011;4931;44.874;-1.092;2022-10-19T12:11:46;20.95;;;8.20;;
9783;SDS011;4931;44.874;-1.092;2022-10-19T12:16:41;22.73;;;7.50;;
9783;SDS011;4931;44.874;-1.092;2022-10-19T12:21:36;27.05;;;7.97;;
9783;SDS011;4931;44.874;-1.092;2022-10-19T12:26:26;26.85;;;8.15;;
9783;SDS011;4931;44.874;-1.092;2022-10-19T12:31:19;25.10;;;7.63;;
9783;SDS011;4931;44.874;-1.092;2022-10-19T12:41:13;24.38;;;7.13;;
9783;SDS011;4931;44.874;-1.092;2022-10-19T12:46:10;27.08;;;8.20;;
9783;SDS011;4931;44.874;-1.092;2022-10-19T12:51:11;23.50;;;7.35;;
9783;SDS011;4931;44.874;-1.092;2022-10-19T12:55:59;22.50;;;6.93;;
9783;SDS011;4931;44.874;-1.092;2022-10-19T13:00:56;26.23;;;7.90;;
9783;SDS011;4931;44.874;-1.092;2022-10-19T13:05:47;19.73;;;6.60;;
9783;SDS011;4931;44.874;-1.092;2022-10-19T13:10:42;22.05;;;7.05;;
9783;SDS011;4931;44.874;-1.092;2022-10-19T13:15:49;21.65;;;7.40;;
9783;SDS011;4931;44.874;-1.092;2022-10-19T13:20:49;23.08;;;7.25;;
9783;SDS011;4931;44.874;-1.092;2022-10-19T13:25:36;22.98;;;7.88;;
9783;SDS011;4931;44.874;-1.092;2022-10-19T13:35:49;21.48;;;7.32;;
9783;SDS011;4931;44.874;-1.092;2022-10-19T13:46:04;24.75;;;7.47;;
9783;SDS011;4931;44.874;-1.092;2022-10-19T13:50:58;26.38;;;7.30;;
9783;SDS011;4931;44.874;-1.092;2022-10-19T13:55:55;22.52;;;7.25;;
9783;SDS011;4931;44.874;-1.092;2022-10-19T14:01:06;26.90;;;7.47;;
9783;SDS011;4931;44.874;-1.092;2022-10-19T14:06:08;28.63;;;7.57;;
9783;SDS011;4931;44.874;-1.092;2022-10-19T14:10:59;29.90;;;8.10;;
9783;SDS011;4931;44.874;-1.092;2022-10-19T14:15:51;20.17;;;7.70;;
9783;SDS011;4931;44.874;-1.092;2022-10-19T14:20:37;24.80;;;7.70;;
9783;SDS011;4931;44.874;-1.092;2022-10-19T14:25:26;26.50;;;7.70;;
9783;SDS011;4931;44.874;-1.092;2022-10-19T14:30:19;26.38;;;7.72;;
9783;SDS011;4931;44.874;-1.092;2022-10-19T14:35:14;25.65;;;7.43;;
9783;SDS011;4931;44.874;-1.092;2022-10-19T14:40:04;22.25;;;7.90;;
9783;SDS011;4931;44.874;-1.092;2022-10-19T14:44:54;26.77;;;8.75;;
9783;SDS011;4931;44.874;-1.092;2022-10-19T14:49:45;30.95;;;8.20;;
9783;SDS011;4931;44.874;-1.092;2022-10-19T14:54:31;27.42;;;9.10;;
9783;SDS011;4931;44.874;-1.092;2022-10-19T14:59:22;27.20;;;8.27;;
9783;SDS011;4931;44.874;-1.092;2022-10-19T15:04:14;24.92;;;8.82;;
9783;SDS011;4931;44.874;-1.092;2022-10-19T15:09:03;21.17;;;8.18;;
9783;SDS011;4931;44.874;-1.092;2022-10-19T15:14:06;27.40;;;8.45;;
9783;SDS011;4931;44.874;-1.092;2022-10-19T15:18:55;28.85;;;8.48;;
9783;SDS011;4931;44.874;-1.092;2022-10-19T15:23:43;19.02;;;9.13;;
9783;SDS011;4931;44.874;-1.092;2022-10-19T15:28:30;23.77;;;8.05;;
9783;SDS011;4931;44.874;-1.092;2022-10-19T15:33:22;32.97;;;10.20;;
9783;SDS011;4931;44.874;-1.092;2022-10-19T15:38:12;21.58;;;7.60;;
9783;SDS011;4931;44.874;-1.092;2022-10-19T15:48:24;32.88;;;8.75;;
9783;SDS011;4931;44.874;-1.092;2022-10-19T15:53:10;26.27;;;8.85;;
9783;SDS011;4931;44.874;-1.092;2022-10-19T15:57:57;27.75;;;9.65;;
9783;SDS011;4931;44.874;-1.092;2022-10-19T16:02:45;26.90;;;9.15;;
9783;SDS011;4931;44.874;-1.092;2022-10-19T16:07:31;25.50;;;8.43;;
9783;SDS011;4931;44.874;-1.092;2022-10-19T16:12:19;22.00;;;8.48;;
9783;SDS011;4931;44.874;-1.092;2022-10-19T16:17:05;29.17;;;8.30;;
9783;SDS011;4931;44.874;-1.092;2022-10-19T16:21:53;29.77;;;8.75;;
9783;SDS011;4931;44.874;-1.092;2022-10-19T16:26:38;28.80;;;9.80;;
9783;SDS011;4931;44.874;-1.092;2022-10-19T16:31:23;28.27;;;9.65;;
9783;SDS011;4931;44.874;-1.092;2022-10-19T16:36:09;36.10;;;9.52;;
9783;SDS011;4931;44.874;-1.092;2022-10-19T16:40:57;29.55;;;9.48;;
9783;SDS011;4931;44.874;-1.092;2022-10-19T16:45:43;32.28;;;9.80;;
9783;SDS011;4931;44.874;-1.092;2022-10-19T16:50:28;23.42;;;9.35;;
9783;SDS011;4931;44.874;-1.092;2022-10-19T16:55:14;31.15;;;9.80;;
9783;SDS011;4931;44.874;-1.092;2022-10-19T17:00:03;32.55;;;10.15;;
9783;SDS011;4931;44.874;-1.092;2022-10-19T17:04:51;32.20;;;10.73;;
9783;SDS011;4931;44.874;-1.092;2022-10-19T17:09:36;29.00;;;9.77;;
9783;SDS011;4931;44.874;-1.092;2022-10-19T17:14:23;25.98;;;9.05;;
9783;SDS011;4931;44.874;-1.092;2022-10-19T17:19:11;30.90;;;8.85;;
9783;SDS011;4931;44.874;-1.092;2022-10-19T17:23:57;34.72;;;8.55;;
9783;SDS011;4931;44.874;-1.092;2022-10-19T17:28:43;27.40;;;8.07;;
9783;SDS011;4931;44.874;-1.092;2022-10-19T17:33:30;30.08;;;7.72;;
9783;SDS011;4931;44.874;-1.092;2022-10-19T17:38:18;37.03;;;7.75;;
9783;SDS011;4931;44.874;-1.092;2022-10-19T17:43:03;40.50;;;6.85;;
9783;SDS011;4931;44.874;-1.092;2022-10-19T17:47:48;32.53;;;7.70;;
9783;SDS011;4931;44.874;-1.092;2022-10-19T17:52:34;28.48;;;7.15;;
9783;SDS011;4931;44.874;-1.092;2022-10-19T17:57:21;29.88;;;7.22;;
9783;SDS011;4931;44.874;-1.092;2022-10-19T18:02:08;34.78;;;7.38;;
9783;SDS011;4931;44.874;-1.092;2022-10-19T18:06:53;34.85;;;7.80;;
9783;SDS011;4931;44.874;-1.092;2022-10-19T18:11:39;34.92;;;7.07;;
9783;SDS011;4931;44.874;-1.092;2022-10-19T18:16:29;30.92;;;6.78;;
9783;SDS011;4931;44.874;-1.092;2022-10-19T18:21:16;34.85;;;7.25;;
9783;SDS011;4931;44.874;-1.092;2022-10-19T18:26:04;40.80;;;7.63;;
9783;SDS011;4931;44.874;-1.092;2022-10-19T18:30:50;39.83;;;7.90;;
9783;SDS011;4931;44.874;-1.092;2022-10-19T18:35:38;32.55;;;7.90;;
9783;SDS011;4931;44.874;-1.092;2022-10-19T18:40:24;29.10;;;7.93;;
9783;SDS011;4931;44.874;-1.092;2022-10-19T18:45:09;31.75;;;7.65;;
9783;SDS011;4931;44.874;-1.092;2022-10-19T18:49:55;37.58;;;8.00;;
9783;SDS011;4931;44.874;-1.092;2022-10-19T18:54:42;34.00;;;7.90;;
9783;SDS011;4931;44.874;-1.092;2022-10-19T18:59:28;37.60;;;8.40;;
9783;SDS011;4931;44.874;-1.092;2022-10-19T19:04:13;38.50;;;8.00;;
9783;SDS011;4931;44.874;-1.092;2022-10-19T19:08:59;43.75;;;8.32;;
9783;SDS011;4931;44.874;-1.092;2022-10-19T19:13:50;25.98;;;7.68;;
9783;SDS011;4931;44.874;-1.092;2022-10-19T19:18:36;36.58;;;7.72;;
9783;SDS011;4931;44.874;-1.092;2022-10-19T19:23:21;37.40;;;8.20;;
9783;SDS011;4931;44.874;-1.092;2022-10-19T19:28:07;35.60;;;7.95;;
9783;SDS011;4931;44.874;-1.092;2022-10-19T19:32:55;35.10;;;8.35;;
9783;SDS011;4931;44.874;-1.092;2022-10-19T19:37:41;40.85;;;8.43;;
9783;SDS011;4931;44.874;-1.092;2022-10-19T19:42:38;31.70;;;8.68;;
9783;SDS011;4931;44.874;-1.092;2022-10-19T19:47:35;36.75;;;8.50;;
9783;SDS011;4931;44.874;-1.092;2022-10-19T19:52:34;41.00;;;8.15;;
9783;SDS011;4931;44.874;-1.092;2022-10-19T19:57:32;36.45;;;7.28;;
9783;SDS011;4931;44.874;-1.092;2022-10-19T20:02:29;42.42;;;8.80;;
9783;SDS011;4931;44.874;-1.092;2022-10-19T21:10:36;32.42;;;8.38;;
9783;SDS011;4931;44.874;-1.092;2022-10-19T21:15:21;32.53;;;8.57;;
9783;SDS011;4931;44.874;-1.092;2022-10-19T21:20:08;26.55;;;7.60;;
9783;SDS011;4931;44.874;-1.092;2022-10-19T21:24:54;23.73;;;7.00;;
9783;SDS011;4931;44.874;-1.092;2022-10-19T21:29:41;30.83;;;7.70;;
9783;SDS011;4931;44.874;-1.092;2022-10-19T21:34:28;27.20;;;6.82;;
9783;SDS011;4931;44.874;-1.092;2022-10-19T21:39:14;22.75;;;6.72;;
9783;SDS011;4931;44.874;-1.092;2022-10-19T21:44:00;22.00;;;6.78;;
9783;SDS011;4931;44.874;-1.092;2022-10-19T21:48:48;27.80;;;7.43;;
9783;SDS011;4931;44.874;-1.092;2022-10-19T21:53:34;35.83;;;6.82;;
9783;SDS011;4931;44.874;-1.092;2022-10-19T21:58:19;29.30;;;7.43;;
9783;SDS011;4931;44.874;-1.092;2022-10-19T22:03:05;26.20;;;7.60;;
9783;SDS011;4931;44.874;-1.092;2022-10-19T22:07:53;28.52;;;7.50;;
9783;SDS011;4931;44.874;-1.092;2022-10-19T22:12:38;21.15;;;6.63;;
9783;SDS011;4931;44.874;-1.092;2022-10-19T22:17:23;20.75;;;6.45;;
9783;SDS011;4931;44.874;-1.092;2022-10-19T22:22:08;23.17;;;6.95;;
9783;SDS011;4931;44.874;-1.092;2022-10-19T22:26:56;21.40;;;6.82;;
9783;SDS011;4931;44.874;-1.092;2022-10-19T22:31:42;21.98;;;7.18;;
9783;SDS011;4931;44.874;-1.092;2022-10-19T22:36:28;30.67;;;7.03;;
9783;SDS011;4931;44.874;-1.092;2022-10-19T22:41:13;29.15;;;7.20;;
9783;SDS011;4931;44.874;-1.092;2022-10-19T22:46:02;27.02;;;7.22;;
9783;SDS011;4931;44.874;-1.092;2022-10-19T22:50:50;22.95;;;6.57;;
9783;SDS011;4931;44.874;-1.092;2022-10-19T22:55:36;19.05;;;6.40;;
9783;SDS011;4931;44.874;-1.092;2022-10-19T23:00:21;24.17;;;7.03;;
9783;SDS011;4931;44.874;-1.092;2022-10-19T23:05:10;22.80;;;6.55;;
9783;SDS011;4931;44.874;-1.092;2022-10-19T23:09:55;24.42;;;6.20;;
9783;SDS011;4931;44.874;-1.092;2022-10-19T23:14:40;22.08;;;6.78;;
9783;SDS011;4931;44.874;-1.092;2022-10-19T23:19:25;19.33;;;6.28;;
9783;SDS011;4931;44.874;-1.092;2022-10-19T23:24:13;17.73;;;5.93;;
9783;SDS011;4931;44.874;-1.092;2022-10-19T23:28:58;16.90;;;4.97;;
9783;SDS011;4931;44.874;-1.092;2022-10-19T23:33:44;15.32;;;4.82;;
9783;SDS011;4931;44.874;-1.092;2022-10-19T23:38:29;16.15;;;4.88;;
9783;SDS011;4931;44.874;-1.092;2022-10-19T23:43:17;16.98;;;5.20;;
9783;SDS011;4931;44.874;-1.092;2022-10-19T23:48:03;16.75;;;4.55;;
9783;SDS011;4931;44.874;-1.092;2022-10-19T23:52:48;14.50;;;4.07;;
9783;SDS011;4931;44.874;-1.092;2022-10-19T23:57:33;10.68;;;3.78;;
